sensor_id;sensor_type;location;lat;lon;timestamp;P1;durP1;ratioP1;P2;durP2;ratioP2
54745;SDS011;40640;48.130;11.356;2022-11-15T00:01:36;6.68;;;3.80;;
54745;SDS011;40640;48.130;11.356;2022-11-15T00:06:00;6.78;;;4.15;;
54745;SDS011;40640;48.130;11.356;2022-11-15T00:10:24;10.52;;;4.10;;
54745;SDS011;40640;48.130;11.356;2022-11-15T00:14:45;6.95;;;3.95;;
54745;SDS011;40640;48.130;11.356;2022-11-15T00:19:06;5.07;;;3.70;;
54745;SDS011;40640;48.130;11.356;2022-11-15T00:23:27;7.00;;;3.53;;
54745;SDS011;40640;48.130;11.356;2022-11-15T00:27:51;7.35;;;4.35;;
54745;SDS011;40640;48.130;11.356;2022-11-15T00:32:16;4.60;;;3.50;;
54745;SDS011;40640;48.130;11.356;2022-11-15T00:36:37;4.63;;;3.00;;
54745;SDS011;40640;48.130;11.356;2022-11-15T00:40:58;10.50;;;4.22;;
54745;SDS011;40640;48.130;11.356;2022-11-15T00:45:29;6.15;;;3.58;;
54745;SDS011;40640;48.130;11.356;2022-11-15T00:49:50;6.82;;;3.45;;
54745;SDS011;40640;48.130;11.356;2022-11-15T00:54:11;4.90;;;3.40;;
54745;SDS011;40640;48.130;11.356;2022-11-15T00:58:32;7.60;;;4.35;;
54745;SDS011;40640;48.130;11.356;2022-11-15T01:02:55;7.28;;;4.15;;
54745;SDS011;40640;48.130;11.356;2022-11-15T01:07:16;6.70;;;4.38;;
54745;SDS011;40640;48.130;11.356;2022-11-15T01:11:37;8.05;;;4.68;;
54745;SDS011;40640;48.130;11.356;2022-11-15T01:15:58;11.93;;;4.88;;
54745;SDS011;40640;48.130;11.356;2022-11-15T01:20:21;6.65;;;4.40;;
54745;SDS011;40640;48.130;11.356;2022-11-15T01:24:42;6.28;;;3.50;;
54745;SDS011;40640;48.130;11.356;2022-11-15T01:29:04;5.80;;;2.78;;
54745;SDS011;40640;48.130;11.356;2022-11-15T01:33:25;6.25;;;3.15;;
54745;SDS011;40640;48.130;11.356;2022-11-15T01:37:48;6.28;;;3.60;;
54745;SDS011;40640;48.130;11.356;2022-11-15T01:42:11;5.50;;;3.58;;
54745;SDS011;40640;48.130;11.356;2022-11-15T01:46:33;4.45;;;2.75;;
54745;SDS011;40640;48.130;11.356;2022-11-15T01:50:56;5.25;;;2.90;;
54745;SDS011;40640;48.130;11.356;2022-11-15T01:55:20;4.57;;;2.97;;
54745;SDS011;40640;48.130;11.356;2022-11-15T01:59:43;10.88;;;2.60;;
54745;SDS011;40640;48.130;11.356;2022-11-15T02:04:06;3.70;;;2.63;;
54745;SDS011;40640;48.130;11.356;2022-11-15T02:08:32;5.40;;;2.63;;
54745;SDS011;40640;48.130;11.356;2022-11-15T02:12:54;4.03;;;2.65;;
54745;SDS011;40640;48.130;11.356;2022-11-15T02:17:31;20.02;;;7.60;;
54745;SDS011;40640;48.130;11.356;2022-11-15T02:22:05;12.87;;;5.53;;
54745;SDS011;40640;48.130;11.356;2022-11-15T02:26:50;20.45;;;6.57;;
54745;SDS011;40640;48.130;11.356;2022-11-15T02:31:31;11.15;;;4.40;;
54745;SDS011;40640;48.130;11.356;2022-11-15T02:36:02;4.35;;;2.35;;
54745;SDS011;40640;48.130;11.356;2022-11-15T02:40:33;4.05;;;2.67;;
54745;SDS011;40640;48.130;11.356;2022-11-15T02:44:59;4.70;;;3.22;;
54745;SDS011;40640;48.130;11.356;2022-11-15T02:49:28;6.75;;;2.90;;
54745;SDS011;40640;48.130;11.356;2022-11-15T02:53:52;4.20;;;2.47;;
54745;SDS011;40640;48.130;11.356;2022-11-15T03:03:16;4.82;;;2.70;;
54745;SDS011;40640;48.130;11.356;2022-11-15T03:07:56;4.00;;;2.60;;
54745;SDS011;40640;48.130;11.356;2022-11-15T03:12:24;4.13;;;2.90;;
54745;SDS011;40640;48.130;11.356;2022-11-15T03:16:50;4.00;;;2.60;;
54745;SDS011;40640;48.130;11.356;2022-11-15T03:21:15;4.07;;;2.42;;
54745;SDS011;40640;48.130;11.356;2022-11-15T03:25:41;3.50;;;2.47;;
54745;SDS011;40640;48.130;11.356;2022-11-15T03:30:08;5.70;;;2.70;;
54745;SDS011;40640;48.130;11.356;2022-11-15T03:34:31;4.07;;;2.83;;
54745;SDS011;40640;48.130;11.356;2022-11-15T03:38:56;4.03;;;2.72;;
54745;SDS011;40640;48.130;11.356;2022-11-15T03:43:24;4.28;;;2.88;;
54745;SDS011;40640;48.130;11.356;2022-11-15T03:47:57;7.10;;;3.50;;
54745;SDS011;40640;48.130;11.356;2022-11-15T03:52:22;6.45;;;3.88;;
54745;SDS011;40640;48.130;11.356;2022-11-15T03:56:44;5.72;;;3.17;;
54745;SDS011;40640;48.130;11.356;2022-11-15T04:01:06;8.18;;;4.30;;
54745;SDS011;40640;48.130;11.356;2022-11-15T04:05:28;6.60;;;3.92;;
54745;SDS011;40640;48.130;11.356;2022-11-15T04:09:49;5.35;;;3.78;;
54745;SDS011;40640;48.130;11.356;2022-11-15T04:14:25;7.20;;;3.85;;
54745;SDS011;40640;48.130;11.356;2022-11-15T04:18:48;5.35;;;3.30;;
54745;SDS011;40640;48.130;11.356;2022-11-15T04:23:29;5.50;;;3.42;;
54745;SDS011;40640;48.130;11.356;2022-11-15T04:28:20;4.38;;;2.97;;
54745;SDS011;40640;48.130;11.356;2022-11-15T04:32:41;6.00;;;3.17;;
54745;SDS011;40640;48.130;11.356;2022-11-15T04:37:04;4.85;;;3.25;;
54745;SDS011;40640;48.130;11.356;2022-11-15T04:41:35;5.60;;;3.05;;
54745;SDS011;40640;48.130;11.356;2022-11-15T04:45:56;4.63;;;3.17;;
54745;SDS011;40640;48.130;11.356;2022-11-15T04:50:18;5.45;;;2.70;;
54745;SDS011;40640;48.130;11.356;2022-11-15T04:54:40;3.90;;;2.72;;
54745;SDS011;40640;48.130;11.356;2022-11-15T04:59:02;4.05;;;2.50;;
54745;SDS011;40640;48.130;11.356;2022-11-15T05:03:23;3.00;;;2.17;;
54745;SDS011;40640;48.130;11.356;2022-11-15T05:08:02;5.97;;;3.38;;
54745;SDS011;40640;48.130;11.356;2022-11-15T05:12:25;10.02;;;4.97;;
54745;SDS011;40640;48.130;11.356;2022-11-15T05:16:46;13.90;;;6.28;;
54745;SDS011;40640;48.130;11.356;2022-11-15T05:21:09;9.10;;;4.22;;
54745;SDS011;40640;48.130;11.356;2022-11-15T05:25:31;10.93;;;4.93;;
54745;SDS011;40640;48.130;11.356;2022-11-15T05:29:54;11.88;;;5.72;;
54745;SDS011;40640;48.130;11.356;2022-11-15T05:34:16;9.52;;;4.90;;
54745;SDS011;40640;48.130;11.356;2022-11-15T05:38:37;18.35;;;9.57;;
54745;SDS011;40640;48.130;11.356;2022-11-15T05:42:59;17.77;;;9.32;;
54745;SDS011;40640;48.130;11.356;2022-11-15T05:47:25;11.05;;;6.80;;
54745;SDS011;40640;48.130;11.356;2022-11-15T05:51:50;7.20;;;4.00;;
54745;SDS011;40640;48.130;11.356;2022-11-15T05:56:12;10.25;;;5.20;;
54745;SDS011;40640;48.130;11.356;2022-11-15T06:00:35;8.27;;;4.25;;
54745;SDS011;40640;48.130;11.356;2022-11-15T06:04:57;6.72;;;4.03;;
54745;SDS011;40640;48.130;11.356;2022-11-15T06:09:18;9.00;;;3.42;;
54745;SDS011;40640;48.130;11.356;2022-11-15T06:13:40;6.32;;;4.00;;
54745;SDS011;40640;48.130;11.356;2022-11-15T06:18:01;6.47;;;3.65;;
54745;SDS011;40640;48.130;11.356;2022-11-15T06:22:24;6.88;;;3.22;;
54745;SDS011;40640;48.130;11.356;2022-11-15T06:26:45;6.07;;;3.63;;
54745;SDS011;40640;48.130;11.356;2022-11-15T06:31:07;7.50;;;3.67;;
54745;SDS011;40640;48.130;11.356;2022-11-15T06:35:32;5.45;;;3.63;;
54745;SDS011;40640;48.130;11.356;2022-11-15T06:39:56;5.00;;;3.58;;
54745;SDS011;40640;48.130;11.356;2022-11-15T06:44:17;7.97;;;4.38;;
54745;SDS011;40640;48.130;11.356;2022-11-15T06:48:38;8.15;;;4.20;;
54745;SDS011;40640;48.130;11.356;2022-11-15T06:53:00;4.90;;;3.20;;
54745;SDS011;40640;48.130;11.356;2022-11-15T06:57:24;8.48;;;3.67;;
54745;SDS011;40640;48.130;11.356;2022-11-15T07:01:46;4.75;;;3.05;;
54745;SDS011;40640;48.130;11.356;2022-11-15T07:06:07;9.60;;;3.08;;
54745;SDS011;40640;48.130;11.356;2022-11-15T07:10:30;5.68;;;2.60;;
54745;SDS011;40640;48.130;11.356;2022-11-15T07:14:53;6.03;;;4.25;;
54745;SDS011;40640;48.130;11.356;2022-11-15T07:19:14;7.63;;;4.53;;
54745;SDS011;40640;48.130;11.356;2022-11-15T07:23:35;7.00;;;3.42;;
54745;SDS011;40640;48.130;11.356;2022-11-15T07:27:57;5.50;;;2.75;;
54745;SDS011;40640;48.130;11.356;2022-11-15T07:32:21;6.57;;;3.40;;
54745;SDS011;40640;48.130;11.356;2022-11-15T07:36:42;9.20;;;3.60;;
54745;SDS011;40640;48.130;11.356;2022-11-15T07:41:04;7.00;;;3.25;;
54745;SDS011;40640;48.130;11.356;2022-11-15T07:45:26;8.43;;;4.40;;
54745;SDS011;40640;48.130;11.356;2022-11-15T07:49:49;8.60;;;4.28;;
54745;SDS011;40640;48.130;11.356;2022-11-15T07:54:10;8.52;;;4.38;;
54745;SDS011;40640;48.130;11.356;2022-11-15T07:58:31;5.68;;;3.47;;
54745;SDS011;40640;48.130;11.356;2022-11-15T08:02:52;6.68;;;4.15;;
54745;SDS011;40640;48.130;11.356;2022-11-15T08:07:15;6.20;;;3.95;;
54745;SDS011;40640;48.130;11.356;2022-11-15T08:11:37;8.05;;;4.10;;
54745;SDS011;40640;48.130;11.356;2022-11-15T08:15:58;10.15;;;4.32;;
54745;SDS011;40640;48.130;11.356;2022-11-15T08:20:20;7.18;;;4.78;;
54745;SDS011;40640;48.130;11.356;2022-11-15T08:24:42;8.52;;;5.07;;
54745;SDS011;40640;48.130;11.356;2022-11-15T08:29:05;12.38;;;4.88;;
54745;SDS011;40640;48.130;11.356;2022-11-15T08:33:27;9.23;;;4.75;;
54745;SDS011;40640;48.130;11.356;2022-11-15T08:37:49;6.60;;;3.88;;
54745;SDS011;40640;48.130;11.356;2022-11-15T08:42:14;5.78;;;3.35;;
54745;SDS011;40640;48.130;11.356;2022-11-15T08:46:38;5.87;;;3.47;;
54745;SDS011;40640;48.130;11.356;2022-11-15T08:51:00;6.63;;;3.28;;
54745;SDS011;40640;48.130;11.356;2022-11-15T08:55:21;12.80;;;3.60;;
54745;SDS011;40640;48.130;11.356;2022-11-15T08:59:45;5.03;;;3.10;;
54745;SDS011;40640;48.130;11.356;2022-11-15T09:04:06;16.88;;;3.63;;
54745;SDS011;40640;48.130;11.356;2022-11-15T09:08:29;5.82;;;3.22;;
54745;SDS011;40640;48.130;11.356;2022-11-15T09:13:06;4.47;;;2.53;;
54745;SDS011;40640;48.130;11.356;2022-11-15T09:17:28;5.82;;;2.45;;
54745;SDS011;40640;48.130;11.356;2022-11-15T09:21:50;4.18;;;2.20;;
54745;SDS011;40640;48.130;11.356;2022-11-15T09:26:11;11.05;;;3.88;;
54745;SDS011;40640;48.130;11.356;2022-11-15T09:30:33;4.70;;;2.40;;
54745;SDS011;40640;48.130;11.356;2022-11-15T09:34:56;5.07;;;2.75;;
54745;SDS011;40640;48.130;11.356;2022-11-15T09:39:18;4.07;;;2.67;;
54745;SDS011;40640;48.130;11.356;2022-11-15T09:43:40;10.00;;;3.15;;
54745;SDS011;40640;48.130;11.356;2022-11-15T09:48:16;4.10;;;2.30;;
54745;SDS011;40640;48.130;11.356;2022-11-15T09:52:56;3.08;;;2.10;;
54745;SDS011;40640;48.130;11.356;2022-11-15T09:57:02;8.50;;;3.25;;
54745;SDS011;40640;48.130;11.356;2022-11-15T10:01:12;2.88;;;2.00;;
54745;SDS011;40640;48.130;11.356;2022-11-15T10:05:22;3.28;;;2.17;;
54745;SDS011;40640;48.130;11.356;2022-11-15T10:09:29;4.45;;;2.05;;
54745;SDS011;40640;48.130;11.356;2022-11-15T10:13:40;3.95;;;2.20;;
54745;SDS011;40640;48.130;11.356;2022-11-15T10:17:50;9.57;;;3.40;;
54745;SDS011;40640;48.130;11.356;2022-11-15T10:22:17;5.85;;;2.70;;
54745;SDS011;40640;48.130;11.356;2022-11-15T10:26:28;8.33;;;2.63;;
54745;SDS011;40640;48.130;11.356;2022-11-15T10:30:32;7.15;;;2.80;;
54745;SDS011;40640;48.130;11.356;2022-11-15T10:34:36;13.32;;;2.80;;
54745;SDS011;40640;48.130;11.356;2022-11-15T10:38:49;8.48;;;2.92;;
54745;SDS011;40640;48.130;11.356;2022-11-15T10:43:04;7.97;;;3.35;;
54745;SDS011;40640;48.130;11.356;2022-11-15T10:51:41;8.70;;;3.67;;
54745;SDS011;40640;48.130;11.356;2022-11-15T10:55:47;9.00;;;2.92;;
54745;SDS011;40640;48.130;11.356;2022-11-15T10:59:53;8.23;;;3.22;;
54745;SDS011;40640;48.130;11.356;2022-11-15T11:03:59;11.80;;;3.83;;
54745;SDS011;40640;48.130;11.356;2022-11-15T11:08:03;7.32;;;3.72;;
54745;SDS011;40640;48.130;11.356;2022-11-15T11:12:09;14.93;;;3.80;;
54745;SDS011;40640;48.130;11.356;2022-11-15T11:16:20;7.15;;;4.10;;
54745;SDS011;40640;48.130;11.356;2022-11-15T11:20:39;6.50;;;4.15;;
54745;SDS011;40640;48.130;11.356;2022-11-15T11:24:48;13.55;;;4.35;;
54745;SDS011;40640;48.130;11.356;2022-11-15T11:29:00;16.10;;;4.70;;
54745;SDS011;40640;48.130;11.356;2022-11-15T11:33:14;9.35;;;4.57;;
54745;SDS011;40640;48.130;11.356;2022-11-15T11:37:21;16.10;;;5.05;;
54745;SDS011;40640;48.130;11.356;2022-11-15T11:41:38;10.07;;;3.55;;
54745;SDS011;40640;48.130;11.356;2022-11-15T11:50:17;16.95;;;4.45;;
54745;SDS011;40640;48.130;11.356;2022-11-15T11:54:23;11.00;;;4.03;;
54745;SDS011;40640;48.130;11.356;2022-11-15T11:58:35;11.38;;;3.70;;
54745;SDS011;40640;48.130;11.356;2022-11-15T12:02:41;4.57;;;2.35;;
54745;SDS011;40640;48.130;11.356;2022-11-15T12:06:48;5.05;;;1.75;;
54745;SDS011;40640;48.130;11.356;2022-11-15T12:10:59;3.80;;;1.67;;
54745;SDS011;40640;48.130;11.356;2022-11-15T12:15:11;2.30;;;1.60;;
54745;SDS011;40640;48.130;11.356;2022-11-15T12:19:16;9.65;;;4.00;;
54745;SDS011;40640;48.130;11.356;2022-11-15T12:23:20;4.22;;;1.60;;
54745;SDS011;40640;48.130;11.356;2022-11-15T12:27:31;1.40;;;1.30;;
54745;SDS011;40640;48.130;11.356;2022-11-15T12:31:39;3.38;;;1.88;;
54745;SDS011;40640;48.130;11.356;2022-11-15T12:35:56;1.50;;;1.40;;
54745;SDS011;40640;48.130;11.356;2022-11-15T12:40:16;2.03;;;1.67;;
54745;SDS011;40640;48.130;11.356;2022-11-15T12:49:00;3.80;;;1.30;;
54745;SDS011;40640;48.130;11.356;2022-11-15T12:57:35;1.90;;;1.55;;
54745;SDS011;40640;48.130;11.356;2022-11-15T13:01:57;2.80;;;1.58;;
54745;SDS011;40640;48.130;11.356;2022-11-15T13:06:03;2.35;;;1.48;;
54745;SDS011;40640;48.130;11.356;2022-11-15T13:14:44;1.65;;;1.50;;
54745;SDS011;40640;48.130;11.356;2022-11-15T13:18:53;1.85;;;1.08;;
54745;SDS011;40640;48.130;11.356;2022-11-15T13:23:00;3.30;;;1.52;;
54745;SDS011;40640;48.130;11.356;2022-11-15T13:27:10;2.55;;;1.20;;
54745;SDS011;40640;48.130;11.356;2022-11-15T13:31:21;3.22;;;2.28;;
54745;SDS011;40640;48.130;11.356;2022-11-15T13:35:27;2.92;;;1.50;;
54745;SDS011;40640;48.130;11.356;2022-11-15T13:39:33;1.98;;;1.40;;
54745;SDS011;40640;48.130;11.356;2022-11-15T13:43:38;3.10;;;1.90;;
54745;SDS011;40640;48.130;11.356;2022-11-15T13:47:42;3.30;;;1.80;;
54745;SDS011;40640;48.130;11.356;2022-11-15T13:51:46;2.85;;;1.60;;
54745;SDS011;40640;48.130;11.356;2022-11-15T13:55:50;2.72;;;1.70;;
54745;SDS011;40640;48.130;11.356;2022-11-15T13:59:56;2.65;;;1.40;;
54745;SDS011;40640;48.130;11.356;2022-11-15T14:08:21;2.17;;;1.40;;
54745;SDS011;40640;48.130;11.356;2022-11-15T14:12:29;1.63;;;1.48;;
54745;SDS011;40640;48.130;11.356;2022-11-15T14:16:34;4.70;;;1.58;;
54745;SDS011;40640;48.130;11.356;2022-11-15T14:20:40;1.60;;;1.50;;
54745;SDS011;40640;48.130;11.356;2022-11-15T14:24:44;2.22;;;1.98;;
54745;SDS011;40640;48.130;11.356;2022-11-15T14:28:49;7.18;;;2.42;;
54745;SDS011;40640;48.130;11.356;2022-11-15T14:32:52;5.32;;;2.42;;
54745;SDS011;40640;48.130;11.356;2022-11-15T14:36:56;7.80;;;2.30;;
54745;SDS011;40640;48.130;11.356;2022-11-15T14:40:59;5.97;;;2.70;;
54745;SDS011;40640;48.130;11.356;2022-11-15T14:45:01;6.32;;;2.75;;
54745;SDS011;40640;48.130;11.356;2022-11-15T14:49:04;6.35;;;3.40;;
54745;SDS011;40640;48.130;11.356;2022-11-15T14:53:11;7.35;;;3.95;;
54745;SDS011;40640;48.130;11.356;2022-11-15T14:57:15;6.18;;;4.07;;
54745;SDS011;40640;48.130;11.356;2022-11-15T15:01:19;10.40;;;4.63;;
54745;SDS011;40640;48.130;11.356;2022-11-15T15:05:24;7.95;;;4.22;;
54745;SDS011;40640;48.130;11.356;2022-11-15T15:09:29;6.68;;;4.68;;
54745;SDS011;40640;48.130;11.356;2022-11-15T15:13:32;8.30;;;4.82;;
54745;SDS011;40640;48.130;11.356;2022-11-15T15:17:35;9.88;;;4.63;;
54745;SDS011;40640;48.130;11.356;2022-11-15T15:21:37;6.43;;;4.47;;
54745;SDS011;40640;48.130;11.356;2022-11-15T15:25:41;12.82;;;4.65;;
54745;SDS011;40640;48.130;11.356;2022-11-15T15:29:44;10.82;;;5.22;;
54745;SDS011;40640;48.130;11.356;2022-11-15T15:33:47;11.43;;;5.38;;
54745;SDS011;40640;48.130;11.356;2022-11-15T15:37:50;9.52;;;5.10;;
54745;SDS011;40640;48.130;11.356;2022-11-15T15:41:54;11.10;;;5.60;;
54745;SDS011;40640;48.130;11.356;2022-11-15T15:45:57;11.40;;;5.55;;
54745;SDS011;40640;48.130;11.356;2022-11-15T15:50:00;16.75;;;6.80;;
54745;SDS011;40640;48.130;11.356;2022-11-15T15:54:03;21.63;;;9.13;;
54745;SDS011;40640;48.130;11.356;2022-11-15T15:58:07;18.10;;;7.18;;
54745;SDS011;40640;48.130;11.356;2022-11-15T16:02:10;18.25;;;8.45;;
54745;SDS011;40640;48.130;11.356;2022-11-15T16:06:32;17.42;;;7.95;;
54745;SDS011;40640;48.130;11.356;2022-11-15T16:10:39;15.48;;;8.18;;
54745;SDS011;40640;48.130;11.356;2022-11-15T16:14:43;14.48;;;8.27;;
54745;SDS011;40640;48.130;11.356;2022-11-15T16:18:46;17.25;;;8.02;;
54745;SDS011;40640;48.130;11.356;2022-11-15T16:22:48;17.25;;;8.38;;
54745;SDS011;40640;48.130;11.356;2022-11-15T16:26:51;21.55;;;10.15;;
54745;SDS011;40640;48.130;11.356;2022-11-15T16:31:02;30.35;;;10.70;;
54745;SDS011;40640;48.130;11.356;2022-11-15T16:35:06;32.08;;;11.50;;
54745;SDS011;40640;48.130;11.356;2022-11-15T16:39:12;21.85;;;10.18;;
54745;SDS011;40640;48.130;11.356;2022-11-15T16:43:18;28.30;;;12.10;;
54745;SDS011;40640;48.130;11.356;2022-11-15T16:47:22;31.55;;;13.13;;
54745;SDS011;40640;48.130;11.356;2022-11-15T16:51:25;18.90;;;11.70;;
54745;SDS011;40640;48.130;11.356;2022-11-15T16:55:28;49.65;;;21.33;;
54745;SDS011;40640;48.130;11.356;2022-11-15T16:59:31;36.33;;;16.38;;
54745;SDS011;40640;48.130;11.356;2022-11-15T17:03:40;19.80;;;8.75;;
54745;SDS011;40640;48.130;11.356;2022-11-15T17:07:42;17.02;;;8.93;;
54745;SDS011;40640;48.130;11.356;2022-11-15T17:11:49;24.98;;;11.60;;
54745;SDS011;40640;48.130;11.356;2022-11-15T17:16:01;50.92;;;27.42;;
54745;SDS011;40640;48.130;11.356;2022-11-15T17:20:08;35.30;;;18.73;;
54745;SDS011;40640;48.130;11.356;2022-11-15T17:24:16;36.70;;;14.07;;
54745;SDS011;40640;48.130;11.356;2022-11-15T17:28:21;26.70;;;11.85;;
54745;SDS011;40640;48.130;11.356;2022-11-15T17:32:23;28.52;;;13.63;;
54745;SDS011;40640;48.130;11.356;2022-11-15T17:36:27;24.42;;;13.68;;
54745;SDS011;40640;48.130;11.356;2022-11-15T17:40:30;22.38;;;10.63;;
54745;SDS011;40640;48.130;11.356;2022-11-15T17:44:33;16.80;;;9.10;;
54745;SDS011;40640;48.130;11.356;2022-11-15T17:48:36;22.42;;;10.57;;
54745;SDS011;40640;48.130;11.356;2022-11-15T17:52:40;33.25;;;13.93;;
54745;SDS011;40640;48.130;11.356;2022-11-15T17:56:42;17.83;;;9.60;;
54745;SDS011;40640;48.130;11.356;2022-11-15T18:00:45;16.05;;;7.55;;
54745;SDS011;40640;48.130;11.356;2022-11-15T18:04:49;16.05;;;9.48;;
54745;SDS011;40640;48.130;11.356;2022-11-15T18:08:53;20.98;;;9.45;;
54745;SDS011;40640;48.130;11.356;2022-11-15T18:12:59;15.00;;;9.10;;
54745;SDS011;40640;48.130;11.356;2022-11-15T18:17:02;30.55;;;15.00;;
54745;SDS011;40640;48.130;11.356;2022-11-15T18:21:05;40.33;;;19.73;;
54745;SDS011;40640;48.130;11.356;2022-11-15T18:25:11;19.85;;;11.02;;
54745;SDS011;40640;48.130;11.356;2022-11-15T18:29:19;31.48;;;11.80;;
54745;SDS011;40640;48.130;11.356;2022-11-15T18:33:21;16.70;;;8.35;;
54745;SDS011;40640;48.130;11.356;2022-11-15T18:37:24;20.10;;;11.48;;
54745;SDS011;40640;48.130;11.356;2022-11-15T18:41:28;20.70;;;11.77;;
54745;SDS011;40640;48.130;11.356;2022-11-15T18:45:32;24.30;;;11.95;;
54745;SDS011;40640;48.130;11.356;2022-11-15T18:49:35;16.52;;;10.27;;
54745;SDS011;40640;48.130;11.356;2022-11-15T18:53:38;13.73;;;7.63;;
54745;SDS011;40640;48.130;11.356;2022-11-15T18:57:43;18.00;;;8.95;;
54745;SDS011;40640;48.130;11.356;2022-11-15T19:01:46;19.23;;;9.45;;
54745;SDS011;40640;48.130;11.356;2022-11-15T19:05:50;17.70;;;9.85;;
54745;SDS011;40640;48.130;11.356;2022-11-15T19:09:52;18.30;;;10.25;;
54745;SDS011;40640;48.130;11.356;2022-11-15T19:13:58;17.65;;;11.23;;
54745;SDS011;40640;48.130;11.356;2022-11-15T19:18:03;19.48;;;10.73;;
54745;SDS011;40640;48.130;11.356;2022-11-15T19:22:06;21.92;;;10.70;;
54745;SDS011;40640;48.130;11.356;2022-11-15T19:30:48;22.80;;;12.32;;
54745;SDS011;40640;48.130;11.356;2022-11-15T19:34:51;33.05;;;18.55;;
54745;SDS011;40640;48.130;11.356;2022-11-15T19:38:54;29.52;;;14.25;;
54745;SDS011;40640;48.130;11.356;2022-11-15T19:42:57;26.15;;;14.38;;
54745;SDS011;40640;48.130;11.356;2022-11-15T19:47:01;27.80;;;15.82;;
54745;SDS011;40640;48.130;11.356;2022-11-15T19:51:04;45.25;;;21.60;;
54745;SDS011;40640;48.130;11.356;2022-11-15T19:55:08;27.40;;;14.00;;
54745;SDS011;40640;48.130;11.356;2022-11-15T19:59:11;25.02;;;11.85;;
54745;SDS011;40640;48.130;11.356;2022-11-15T20:03:15;21.60;;;12.32;;
54745;SDS011;40640;48.130;11.356;2022-11-15T20:07:18;32.08;;;15.48;;
54745;SDS011;40640;48.130;11.356;2022-11-15T20:11:21;27.67;;;14.02;;
54745;SDS011;40640;48.130;11.356;2022-11-15T20:15:24;31.02;;;16.17;;
54745;SDS011;40640;48.130;11.356;2022-11-15T20:19:28;27.27;;;13.05;;
54745;SDS011;40640;48.130;11.356;2022-11-15T20:23:31;23.58;;;12.15;;
54745;SDS011;40640;48.130;11.356;2022-11-15T20:27:34;23.95;;;12.73;;
54745;SDS011;40640;48.130;11.356;2022-11-15T20:31:37;15.77;;;8.63;;
54745;SDS011;40640;48.130;11.356;2022-11-15T20:35:41;17.08;;;7.88;;
54745;SDS011;40640;48.130;11.356;2022-11-15T20:39:44;14.13;;;8.02;;
54745;SDS011;40640;48.130;11.356;2022-11-15T20:43:46;17.10;;;9.18;;
54745;SDS011;40640;48.130;11.356;2022-11-15T20:47:49;19.60;;;8.30;;
54745;SDS011;40640;48.130;11.356;2022-11-15T20:51:53;13.93;;;8.07;;
54745;SDS011;40640;48.130;11.356;2022-11-15T20:56:01;18.13;;;7.78;;
54745;SDS011;40640;48.130;11.356;2022-11-15T21:00:05;17.00;;;8.18;;
54745;SDS011;40640;48.130;11.356;2022-11-15T21:04:09;16.35;;;8.00;;
54745;SDS011;40640;48.130;11.356;2022-11-15T21:08:13;15.85;;;8.02;;
54745;SDS011;40640;48.130;11.356;2022-11-15T21:12:15;12.18;;;7.65;;
54745;SDS011;40640;48.130;11.356;2022-11-15T21:16:19;16.42;;;9.70;;
54745;SDS011;40640;48.130;11.356;2022-11-15T21:20:22;15.15;;;9.27;;
54745;SDS011;40640;48.130;11.356;2022-11-15T21:24:27;20.70;;;9.35;;
54745;SDS011;40640;48.130;11.356;2022-11-15T21:28:30;15.60;;;8.32;;
54745;SDS011;40640;48.130;11.356;2022-11-15T21:32:33;13.25;;;7.90;;
54745;SDS011;40640;48.130;11.356;2022-11-15T21:36:36;20.02;;;7.57;;
54745;SDS011;40640;48.130;11.356;2022-11-15T21:40:40;11.88;;;7.40;;
54745;SDS011;40640;48.130;11.356;2022-11-15T21:44:44;16.30;;;7.85;;
54745;SDS011;40640;48.130;11.356;2022-11-15T21:48:47;12.20;;;7.30;;
54745;SDS011;40640;48.130;11.356;2022-11-15T21:52:50;14.48;;;7.55;;
54745;SDS011;40640;48.130;11.356;2022-11-15T21:56:54;17.90;;;7.97;;
54745;SDS011;40640;48.130;11.356;2022-11-15T22:00:56;17.30;;;7.85;;
54745;SDS011;40640;48.130;11.356;2022-11-15T22:05:17;18.00;;;7.68;;
54745;SDS011;40640;48.130;11.356;2022-11-15T22:09:20;18.80;;;9.50;;
54745;SDS011;40640;48.130;11.356;2022-11-15T22:13:24;16.45;;;8.40;;
54745;SDS011;40640;48.130;11.356;2022-11-15T22:17:27;17.13;;;8.43;;
54745;SDS011;40640;48.130;11.356;2022-11-15T22:21:44;12.63;;;6.32;;
54745;SDS011;40640;48.130;11.356;2022-11-15T22:25:47;20.13;;;7.18;;
54745;SDS011;40640;48.130;11.356;2022-11-15T22:29:51;13.18;;;6.65;;
54745;SDS011;40640;48.130;11.356;2022-11-15T22:33:54;11.65;;;6.75;;
54745;SDS011;40640;48.130;11.356;2022-11-15T22:37:57;13.80;;;6.28;;
54745;SDS011;40640;48.130;11.356;2022-11-15T22:41:59;10.13;;;6.07;;
54745;SDS011;40640;48.130;11.356;2022-11-15T22:46:04;9.63;;;5.88;;
54745;SDS011;40640;48.130;11.356;2022-11-15T22:50:07;13.65;;;7.07;;
54745;SDS011;40640;48.130;11.356;2022-11-15T22:54:10;10.15;;;6.60;;
54745;SDS011;40640;48.130;11.356;2022-11-15T22:58:13;13.18;;;6.35;;
54745;SDS011;40640;48.130;11.356;2022-11-15T23:02:17;13.10;;;7.15;;
54745;SDS011;40640;48.130;11.356;2022-11-15T23:06:20;17.70;;;7.15;;
54745;SDS011;40640;48.130;11.356;2022-11-15T23:10:23;11.13;;;5.90;;
54745;SDS011;40640;48.130;11.356;2022-11-15T23:14:44;11.93;;;6.72;;
54745;SDS011;40640;48.130;11.356;2022-11-15T23:18:48;15.27;;;7.47;;
54745;SDS011;40640;48.130;11.356;2022-11-15T23:22:52;14.25;;;8.05;;
54745;SDS011;40640;48.130;11.356;2022-11-15T23:26:55;13.60;;;7.18;;
54745;SDS011;40640;48.130;11.356;2022-11-15T23:31:02;14.05;;;7.90;;
54745;SDS011;40640;48.130;11.356;2022-11-15T23:35:25;18.02;;;8.07;;
54745;SDS011;40640;48.130;11.356;2022-11-15T23:39:28;15.98;;;8.65;;
54745;SDS011;40640;48.130;11.356;2022-11-15T23:43:31;13.88;;;7.95;;
54745;SDS011;40640;48.130;11.356;2022-11-15T23:47:34;15.82;;;7.82;;
54745;SDS011;40640;48.130;11.356;2022-11-15T23:51:38;12.32;;;7.35;;
54745;SDS011;40640;48.130;11.356;2022-11-15T23:55:41;13.35;;;7.38;;
54745;SDS011;40640;48.130;11.356;2022-11-15T23:59:44;13.77;;;7.28;;
